sensor_id;sensor_type;location;lat;lon;timestamp;temperature;humidity
12926;DHT22;6529;50.566;9.774;2024-03-02T00:00:01;5.40;99.90
12926;DHT22;6529;50.566;9.774;2024-03-02T00:02:39;5.40;99.90
12926;DHT22;6529;50.566;9.774;2024-03-02T00:05:06;5.30;99.90
12926;DHT22;6529;50.566;9.774;2024-03-02T00:07:31;5.40;99.90
12926;DHT22;6529;50.566;9.774;2024-03-02T00:09:57;5.40;99.90
12926;DHT22;6529;50.566;9.774;2024-03-02T00:12:23;5.40;99.90
12926;DHT22;6529;50.566;9.774;2024-03-02T00:14:48;5.40;99.90
12926;DHT22;6529;50.566;9.774;2024-03-02T00:17:24;5.40;99.90
12926;DHT22;6529;50.566;9.774;2024-03-02T00:19:51;5.40;99.90
12926;DHT22;6529;50.566;9.774;2024-03-02T00:22:17;5.40;99.90
12926;DHT22;6529;50.566;9.774;2024-03-02T00:24:43;5.30;99.90
12926;DHT22;6529;50.566;9.774;2024-03-02T00:27:13;5.40;99.90
12926;DHT22;6529;50.566;9.774;2024-03-02T00:29:40;5.40;99.90
12926;DHT22;6529;50.566;9.774;2024-03-02T00:32:13;5.50;99.90
12926;DHT22;6529;50.566;9.774;2024-03-02T00:34:39;5.40;99.90
12926;DHT22;6529;50.566;9.774;2024-03-02T00:37:05;5.40;99.90
12926;DHT22;6529;50.566;9.774;2024-03-02T00:39:31;5.30;99.90
12926;DHT22;6529;50.566;9.774;2024-03-02T00:41:57;5.30;99.90
12926;DHT22;6529;50.566;9.774;2024-03-02T00:44:25;5.20;99.90
12926;DHT22;6529;50.566;9.774;2024-03-02T00:46:52;5.20;99.90
12926;DHT22;6529;50.566;9.774;2024-03-02T00:51:51;5.20;99.90
12926;DHT22;6529;50.566;9.774;2024-03-02T00:54:25;5.30;99.90
12926;DHT22;6529;50.566;9.774;2024-03-02T00:56:52;5.30;99.90
12926;DHT22;6529;50.566;9.774;2024-03-02T00:59:20;5.30;99.90
12926;DHT22;6529;50.566;9.774;2024-03-02T01:01:47;5.30;99.90
12926;DHT22;6529;50.566;9.774;2024-03-02T01:04:12;5.30;99.90
12926;DHT22;6529;50.566;9.774;2024-03-02T01:06:39;5.30;99.90
12926;DHT22;6529;50.566;9.774;2024-03-02T01:09:05;5.30;99.90
12926;DHT22;6529;50.566;9.774;2024-03-02T01:11:30;5.30;99.90
12926;DHT22;6529;50.566;9.774;2024-03-02T01:13:56;5.40;99.90
12926;DHT22;6529;50.566;9.774;2024-03-02T01:16:21;5.60;99.90
12926;DHT22;6529;50.566;9.774;2024-03-02T01:18:47;5.70;99.90
12926;DHT22;6529;50.566;9.774;2024-03-02T01:21:13;5.80;99.90
12926;DHT22;6529;50.566;9.774;2024-03-02T01:23:38;5.80;99.90
12926;DHT22;6529;50.566;9.774;2024-03-02T01:26:04;6.00;99.90
12926;DHT22;6529;50.566;9.774;2024-03-02T01:28:29;6.40;99.90
12926;DHT22;6529;50.566;9.774;2024-03-02T01:30:55;6.40;99.90
12926;DHT22;6529;50.566;9.774;2024-03-02T01:33:21;6.50;99.90
12926;DHT22;6529;50.566;9.774;2024-03-02T01:35:47;6.40;99.90
12926;DHT22;6529;50.566;9.774;2024-03-02T01:38:13;6.40;99.90
12926;DHT22;6529;50.566;9.774;2024-03-02T01:40:39;6.50;99.90
12926;DHT22;6529;50.566;9.774;2024-03-02T01:43:05;6.50;99.90
12926;DHT22;6529;50.566;9.774;2024-03-02T01:45:31;6.40;99.90
12926;DHT22;6529;50.566;9.774;2024-03-02T01:47:57;6.40;99.90
12926;DHT22;6529;50.566;9.774;2024-03-02T01:50:27;6.40;99.90
12926;DHT22;6529;50.566;9.774;2024-03-02T01:52:54;6.40;99.90
12926;DHT22;6529;50.566;9.774;2024-03-02T01:55:20;6.40;99.90
12926;DHT22;6529;50.566;9.774;2024-03-02T01:57:47;6.40;99.90
12926;DHT22;6529;50.566;9.774;2024-03-02T02:00:13;6.30;99.90
12926;DHT22;6529;50.566;9.774;2024-03-02T02:02:39;6.30;99.90
12926;DHT22;6529;50.566;9.774;2024-03-02T02:05:05;6.40;99.90
12926;DHT22;6529;50.566;9.774;2024-03-02T02:07:30;6.40;99.90
12926;DHT22;6529;50.566;9.774;2024-03-02T02:09:57;6.40;99.90
12926;DHT22;6529;50.566;9.774;2024-03-02T02:12:22;6.40;99.90
12926;DHT22;6529;50.566;9.774;2024-03-02T02:14:48;6.40;99.90
12926;DHT22;6529;50.566;9.774;2024-03-02T02:17:15;6.30;99.90
12926;DHT22;6529;50.566;9.774;2024-03-02T02:19:41;6.30;99.90
12926;DHT22;6529;50.566;9.774;2024-03-02T02:22:07;6.30;99.90
12926;DHT22;6529;50.566;9.774;2024-03-02T02:24:32;6.30;99.90
12926;DHT22;6529;50.566;9.774;2024-03-02T02:26:58;6.30;99.90
12926;DHT22;6529;50.566;9.774;2024-03-02T02:29:23;6.30;99.90
12926;DHT22;6529;50.566;9.774;2024-03-02T02:31:49;6.30;99.90
12926;DHT22;6529;50.566;9.774;2024-03-02T02:34:15;6.20;99.90
12926;DHT22;6529;50.566;9.774;2024-03-02T02:36:41;6.20;99.90
12926;DHT22;6529;50.566;9.774;2024-03-02T02:39:09;6.20;99.90
12926;DHT22;6529;50.566;9.774;2024-03-02T02:41:39;6.10;99.90
12926;DHT22;6529;50.566;9.774;2024-03-02T02:44:13;6.10;99.90
12926;DHT22;6529;50.566;9.774;2024-03-02T02:46:40;6.10;99.90
12926;DHT22;6529;50.566;9.774;2024-03-02T02:49:06;6.10;99.90
12926;DHT22;6529;50.566;9.774;2024-03-02T02:51:31;6.10;99.90
12926;DHT22;6529;50.566;9.774;2024-03-02T02:53:57;6.10;99.90
12926;DHT22;6529;50.566;9.774;2024-03-02T02:56:23;6.00;99.90
12926;DHT22;6529;50.566;9.774;2024-03-02T02:58:48;6.00;99.90
12926;DHT22;6529;50.566;9.774;2024-03-02T03:01:15;5.90;99.90
12926;DHT22;6529;50.566;9.774;2024-03-02T03:03:43;5.90;99.90
12926;DHT22;6529;50.566;9.774;2024-03-02T03:06:09;5.80;99.90
12926;DHT22;6529;50.566;9.774;2024-03-02T03:08:35;5.70;99.90
12926;DHT22;6529;50.566;9.774;2024-03-02T03:11:01;5.70;99.90
12926;DHT22;6529;50.566;9.774;2024-03-02T03:13:26;5.60;99.90
12926;DHT22;6529;50.566;9.774;2024-03-02T03:15:52;5.80;99.90
12926;DHT22;6529;50.566;9.774;2024-03-02T03:18:18;6.00;99.90
12926;DHT22;6529;50.566;9.774;2024-03-02T03:20:44;6.00;99.90
12926;DHT22;6529;50.566;9.774;2024-03-02T03:23:09;5.90;99.90
12926;DHT22;6529;50.566;9.774;2024-03-02T03:25:35;5.90;99.90
12926;DHT22;6529;50.566;9.774;2024-03-02T03:28:00;5.80;99.90
12926;DHT22;6529;50.566;9.774;2024-03-02T03:30:27;5.80;99.90
12926;DHT22;6529;50.566;9.774;2024-03-02T03:32:52;5.70;99.90
12926;DHT22;6529;50.566;9.774;2024-03-02T03:35:18;5.70;99.90
12926;DHT22;6529;50.566;9.774;2024-03-02T03:37:44;5.70;99.90
12926;DHT22;6529;50.566;9.774;2024-03-02T03:40:10;5.70;99.90
12926;DHT22;6529;50.566;9.774;2024-03-02T03:42:36;5.60;99.90
12926;DHT22;6529;50.566;9.774;2024-03-02T03:45:03;5.60;99.90
12926;DHT22;6529;50.566;9.774;2024-03-02T03:47:29;5.40;99.90
12926;DHT22;6529;50.566;9.774;2024-03-02T03:49:54;5.30;99.90
12926;DHT22;6529;50.566;9.774;2024-03-02T03:52:20;5.30;99.90
12926;DHT22;6529;50.566;9.774;2024-03-02T03:54:46;5.40;99.90
12926;DHT22;6529;50.566;9.774;2024-03-02T03:57:12;5.50;99.90
12926;DHT22;6529;50.566;9.774;2024-03-02T03:59:37;5.50;99.90
12926;DHT22;6529;50.566;9.774;2024-03-02T04:02:03;5.50;99.90
12926;DHT22;6529;50.566;9.774;2024-03-02T04:04:29;5.50;99.90
12926;DHT22;6529;50.566;9.774;2024-03-02T04:06:55;5.50;99.90
12926;DHT22;6529;50.566;9.774;2024-03-02T04:09:20;5.40;99.90
12926;DHT22;6529;50.566;9.774;2024-03-02T04:11:46;5.40;99.90
12926;DHT22;6529;50.566;9.774;2024-03-02T04:14:11;5.40;99.90
12926;DHT22;6529;50.566;9.774;2024-03-02T04:16:38;5.30;99.90
12926;DHT22;6529;50.566;9.774;2024-03-02T04:19:04;5.30;99.90
12926;DHT22;6529;50.566;9.774;2024-03-02T04:21:30;5.30;99.90
12926;DHT22;6529;50.566;9.774;2024-03-02T04:23:55;5.30;99.90
12926;DHT22;6529;50.566;9.774;2024-03-02T04:26:25;5.30;99.90
12926;DHT22;6529;50.566;9.774;2024-03-02T04:28:51;5.40;99.90
12926;DHT22;6529;50.566;9.774;2024-03-02T04:31:17;5.30;99.90
12926;DHT22;6529;50.566;9.774;2024-03-02T04:33:43;5.20;99.90
12926;DHT22;6529;50.566;9.774;2024-03-02T04:36:08;5.10;99.90
12926;DHT22;6529;50.566;9.774;2024-03-02T04:38:35;5.00;99.90
12926;DHT22;6529;50.566;9.774;2024-03-02T04:41:01;5.00;99.90
12926;DHT22;6529;50.566;9.774;2024-03-02T04:43:26;5.00;99.90
12926;DHT22;6529;50.566;9.774;2024-03-02T04:45:52;5.10;99.90
12926;DHT22;6529;50.566;9.774;2024-03-02T04:48:19;5.00;99.90
12926;DHT22;6529;50.566;9.774;2024-03-02T04:50:45;5.00;99.90
12926;DHT22;6529;50.566;9.774;2024-03-02T04:53:10;5.00;99.90
12926;DHT22;6529;50.566;9.774;2024-03-02T04:55:36;4.90;99.90
12926;DHT22;6529;50.566;9.774;2024-03-02T04:58:04;4.90;99.90
12926;DHT22;6529;50.566;9.774;2024-03-02T05:00:30;4.80;99.90
12926;DHT22;6529;50.566;9.774;2024-03-02T05:02:56;4.80;99.90
12926;DHT22;6529;50.566;9.774;2024-03-02T05:05:21;4.70;99.90
12926;DHT22;6529;50.566;9.774;2024-03-02T05:07:47;4.60;99.90
12926;DHT22;6529;50.566;9.774;2024-03-02T05:10:13;4.60;99.90
12926;DHT22;6529;50.566;9.774;2024-03-02T05:12:39;4.70;99.90
12926;DHT22;6529;50.566;9.774;2024-03-02T05:15:08;4.60;99.90
12926;DHT22;6529;50.566;9.774;2024-03-02T05:17:35;4.60;99.90
12926;DHT22;6529;50.566;9.774;2024-03-02T05:20:01;4.70;99.90
12926;DHT22;6529;50.566;9.774;2024-03-02T05:22:27;4.70;99.90
12926;DHT22;6529;50.566;9.774;2024-03-02T05:24:53;4.70;99.90
12926;DHT22;6529;50.566;9.774;2024-03-02T05:27:18;4.70;99.90
12926;DHT22;6529;50.566;9.774;2024-03-02T05:29:44;4.70;99.90
12926;DHT22;6529;50.566;9.774;2024-03-02T05:32:09;4.80;99.90
12926;DHT22;6529;50.566;9.774;2024-03-02T05:34:35;4.60;99.90
12926;DHT22;6529;50.566;9.774;2024-03-02T05:37:01;4.60;99.90
12926;DHT22;6529;50.566;9.774;2024-03-02T05:39:26;4.50;99.90
12926;DHT22;6529;50.566;9.774;2024-03-02T05:41:52;4.40;99.90
12926;DHT22;6529;50.566;9.774;2024-03-02T05:44:18;4.30;99.90
12926;DHT22;6529;50.566;9.774;2024-03-02T05:46:44;4.30;99.90
12926;DHT22;6529;50.566;9.774;2024-03-02T05:49:10;4.30;99.90
12926;DHT22;6529;50.566;9.774;2024-03-02T05:51:35;4.30;99.90
12926;DHT22;6529;50.566;9.774;2024-03-02T05:54:01;4.30;99.90
12926;DHT22;6529;50.566;9.774;2024-03-02T05:56:27;4.20;99.90
12926;DHT22;6529;50.566;9.774;2024-03-02T05:58:53;4.20;99.90
12926;DHT22;6529;50.566;9.774;2024-03-02T06:01:33;4.10;99.90
12926;DHT22;6529;50.566;9.774;2024-03-02T06:03:58;4.10;99.90
12926;DHT22;6529;50.566;9.774;2024-03-02T06:06:24;4.20;99.90
12926;DHT22;6529;50.566;9.774;2024-03-02T06:08:51;4.20;99.90
12926;DHT22;6529;50.566;9.774;2024-03-02T06:11:17;4.20;99.90
12926;DHT22;6529;50.566;9.774;2024-03-02T06:13:42;4.10;99.90
12926;DHT22;6529;50.566;9.774;2024-03-02T06:16:08;4.10;99.90
12926;DHT22;6529;50.566;9.774;2024-03-02T06:18:34;4.10;99.90
12926;DHT22;6529;50.566;9.774;2024-03-02T06:21:00;4.10;99.90
12926;DHT22;6529;50.566;9.774;2024-03-02T06:23:26;4.10;99.90
12926;DHT22;6529;50.566;9.774;2024-03-02T06:25:52;4.10;99.90
12926;DHT22;6529;50.566;9.774;2024-03-02T06:28:18;4.00;99.90
12926;DHT22;6529;50.566;9.774;2024-03-02T06:30:43;4.00;99.90
12926;DHT22;6529;50.566;9.774;2024-03-02T06:33:09;4.00;99.90
12926;DHT22;6529;50.566;9.774;2024-03-02T06:35:35;4.00;99.90
12926;DHT22;6529;50.566;9.774;2024-03-02T06:38:01;4.00;99.90
12926;DHT22;6529;50.566;9.774;2024-03-02T06:40:26;4.00;99.90
12926;DHT22;6529;50.566;9.774;2024-03-02T06:42:52;4.00;99.90
12926;DHT22;6529;50.566;9.774;2024-03-02T06:45:18;4.00;99.90
12926;DHT22;6529;50.566;9.774;2024-03-02T06:47:43;4.20;99.90
12926;DHT22;6529;50.566;9.774;2024-03-02T06:50:09;4.80;99.90
12926;DHT22;6529;50.566;9.774;2024-03-02T06:52:35;5.50;99.90
12926;DHT22;6529;50.566;9.774;2024-03-02T06:55:01;6.10;99.90
12926;DHT22;6529;50.566;9.774;2024-03-02T06:57:26;6.70;99.90
12926;DHT22;6529;50.566;9.774;2024-03-02T06:59:52;6.90;99.90
12926;DHT22;6529;50.566;9.774;2024-03-02T07:02:20;6.60;46.60
12926;DHT22;6529;50.566;9.774;2024-03-02T07:04:46;6.10;99.90
12926;DHT22;6529;50.566;9.774;2024-03-02T07:07:12;5.80;99.90
12926;DHT22;6529;50.566;9.774;2024-03-02T07:09:38;5.60;99.90
12926;DHT22;6529;50.566;9.774;2024-03-02T07:12:04;5.30;99.90
12926;DHT22;6529;50.566;9.774;2024-03-02T07:14:29;5.20;99.90
12926;DHT22;6529;50.566;9.774;2024-03-02T07:17:14;5.20;99.90
12926;DHT22;6529;50.566;9.774;2024-03-02T07:19:39;5.10;99.90
12926;DHT22;6529;50.566;9.774;2024-03-02T07:22:08;5.10;99.90
12926;DHT22;6529;50.566;9.774;2024-03-02T07:24:40;5.10;99.90
12926;DHT22;6529;50.566;9.774;2024-03-02T07:27:06;5.00;99.90
12926;DHT22;6529;50.566;9.774;2024-03-02T07:29:32;5.10;99.90
12926;DHT22;6529;50.566;9.774;2024-03-02T07:31:57;5.00;99.90
12926;DHT22;6529;50.566;9.774;2024-03-02T07:34:23;5.00;99.90
12926;DHT22;6529;50.566;9.774;2024-03-02T07:36:49;5.00;99.90
12926;DHT22;6529;50.566;9.774;2024-03-02T07:39:14;5.10;99.90
12926;DHT22;6529;50.566;9.774;2024-03-02T07:41:40;5.20;99.90
12926;DHT22;6529;50.566;9.774;2024-03-02T07:44:05;5.20;99.90
12926;DHT22;6529;50.566;9.774;2024-03-02T07:46:31;5.40;99.90
12926;DHT22;6529;50.566;9.774;2024-03-02T07:48:56;5.50;99.90
12926;DHT22;6529;50.566;9.774;2024-03-02T07:51:22;5.60;99.90
12926;DHT22;6529;50.566;9.774;2024-03-02T07:53:47;5.70;99.90
12926;DHT22;6529;50.566;9.774;2024-03-02T07:56:13;5.90;99.90
12926;DHT22;6529;50.566;9.774;2024-03-02T07:58:39;6.00;99.90
12926;DHT22;6529;50.566;9.774;2024-03-02T08:01:04;6.10;99.90
12926;DHT22;6529;50.566;9.774;2024-03-02T08:03:30;6.20;99.90
12926;DHT22;6529;50.566;9.774;2024-03-02T08:05:57;6.30;99.90
12926;DHT22;6529;50.566;9.774;2024-03-02T08:08:23;6.40;99.90
12926;DHT22;6529;50.566;9.774;2024-03-02T08:10:48;6.40;99.90
12926;DHT22;6529;50.566;9.774;2024-03-02T08:13:14;6.50;99.90
12926;DHT22;6529;50.566;9.774;2024-03-02T08:15:40;6.60;99.90
12926;DHT22;6529;50.566;9.774;2024-03-02T08:18:06;6.60;99.90
12926;DHT22;6529;50.566;9.774;2024-03-02T08:20:31;6.70;99.90
12926;DHT22;6529;50.566;9.774;2024-03-02T08:22:57;6.80;99.90
12926;DHT22;6529;50.566;9.774;2024-03-02T08:25:22;6.90;99.90
12926;DHT22;6529;50.566;9.774;2024-03-02T08:27:48;7.00;99.90
12926;DHT22;6529;50.566;9.774;2024-03-02T08:30:14;7.00;99.90
12926;DHT22;6529;50.566;9.774;2024-03-02T08:32:39;7.20;99.90
12926;DHT22;6529;50.566;9.774;2024-03-02T08:35:06;7.20;99.90
12926;DHT22;6529;50.566;9.774;2024-03-02T08:37:32;7.20;99.90
12926;DHT22;6529;50.566;9.774;2024-03-02T08:39:57;7.30;99.90
12926;DHT22;6529;50.566;9.774;2024-03-02T08:42:23;7.30;99.90
12926;DHT22;6529;50.566;9.774;2024-03-02T08:44:49;7.40;99.90
12926;DHT22;6529;50.566;9.774;2024-03-02T08:47:15;7.50;99.90
12926;DHT22;6529;50.566;9.774;2024-03-02T08:49:40;7.70;99.90
12926;DHT22;6529;50.566;9.774;2024-03-02T08:52:06;7.70;99.90
12926;DHT22;6529;50.566;9.774;2024-03-02T08:54:31;7.80;99.90
12926;DHT22;6529;50.566;9.774;2024-03-02T08:56:59;7.90;96.20
12926;DHT22;6529;50.566;9.774;2024-03-02T08:59:25;8.00;66.20
12926;DHT22;6529;50.566;9.774;2024-03-02T09:01:53;8.00;61.50
12926;DHT22;6529;50.566;9.774;2024-03-02T09:04:18;8.10;14.10
12926;DHT22;6529;50.566;9.774;2024-03-02T09:06:44;8.10;1.00
12926;DHT22;6529;50.566;9.774;2024-03-02T09:09:09;8.20;1.00
12926;DHT22;6529;50.566;9.774;2024-03-02T09:11:35;8.20;1.00
12926;DHT22;6529;50.566;9.774;2024-03-02T09:14:01;8.30;1.00
12926;DHT22;6529;50.566;9.774;2024-03-02T09:16:27;8.30;1.00
12926;DHT22;6529;50.566;9.774;2024-03-02T09:18:56;8.40;1.00
12926;DHT22;6529;50.566;9.774;2024-03-02T09:21:21;8.40;1.00
12926;DHT22;6529;50.566;9.774;2024-03-02T09:23:48;8.50;99.90
12926;DHT22;6529;50.566;9.774;2024-03-02T09:26:14;8.50;1.00
12926;DHT22;6529;50.566;9.774;2024-03-02T09:28:43;8.60;1.00
12926;DHT22;6529;50.566;9.774;2024-03-02T09:31:09;8.70;1.00
12926;DHT22;6529;50.566;9.774;2024-03-02T09:33:34;8.80;1.00
12926;DHT22;6529;50.566;9.774;2024-03-02T09:36:00;8.90;1.00
12926;DHT22;6529;50.566;9.774;2024-03-02T09:38:25;8.90;1.00
12926;DHT22;6529;50.566;9.774;2024-03-02T09:40:51;8.90;99.90
12926;DHT22;6529;50.566;9.774;2024-03-02T09:43:17;9.00;97.30
12926;DHT22;6529;50.566;9.774;2024-03-02T09:45:43;9.20;99.90
12926;DHT22;6529;50.566;9.774;2024-03-02T09:48:10;9.20;1.00
12926;DHT22;6529;50.566;9.774;2024-03-02T09:50:35;9.30;1.00
12926;DHT22;6529;50.566;9.774;2024-03-02T09:53:01;9.30;1.00
12926;DHT22;6529;50.566;9.774;2024-03-02T09:55:27;9.20;1.00
12926;DHT22;6529;50.566;9.774;2024-03-02T09:57:53;9.20;1.00
12926;DHT22;6529;50.566;9.774;2024-03-02T10:00:19;9.20;99.90
12926;DHT22;6529;50.566;9.774;2024-03-02T10:02:44;9.30;99.90
12926;DHT22;6529;50.566;9.774;2024-03-02T10:05:11;9.40;1.00
12926;DHT22;6529;50.566;9.774;2024-03-02T10:07:37;9.60;1.00
12926;DHT22;6529;50.566;9.774;2024-03-02T10:10:14;9.90;99.90
12926;DHT22;6529;50.566;9.774;2024-03-02T10:12:39;9.90;1.00
12926;DHT22;6529;50.566;9.774;2024-03-02T10:15:05;10.00;1.00
12926;DHT22;6529;50.566;9.774;2024-03-02T10:17:31;9.90;99.90
12926;DHT22;6529;50.566;9.774;2024-03-02T10:19:57;9.90;1.00
12926;DHT22;6529;50.566;9.774;2024-03-02T10:22:23;10.00;99.90
12926;DHT22;6529;50.566;9.774;2024-03-02T10:24:49;10.10;99.90
12926;DHT22;6529;50.566;9.774;2024-03-02T10:27:22;10.20;99.90
12926;DHT22;6529;50.566;9.774;2024-03-02T10:29:48;10.30;99.90
12926;DHT22;6529;50.566;9.774;2024-03-02T10:32:15;10.50;1.00
12926;DHT22;6529;50.566;9.774;2024-03-02T10:34:42;10.70;97.50
12926;DHT22;6529;50.566;9.774;2024-03-02T10:37:08;10.80;99.90
12926;DHT22;6529;50.566;9.774;2024-03-02T10:39:37;10.90;99.90
12926;DHT22;6529;50.566;9.774;2024-03-02T10:42:05;11.10;1.00
12926;DHT22;6529;50.566;9.774;2024-03-02T10:44:32;11.30;8.90
12926;DHT22;6529;50.566;9.774;2024-03-02T10:47:01;11.50;1.00
12926;DHT22;6529;50.566;9.774;2024-03-02T10:49:29;11.80;99.90
12926;DHT22;6529;50.566;9.774;2024-03-02T10:51:55;12.20;1.00
12926;DHT22;6529;50.566;9.774;2024-03-02T10:54:20;12.20;1.00
12926;DHT22;6529;50.566;9.774;2024-03-02T10:56:53;12.30;99.90
12926;DHT22;6529;50.566;9.774;2024-03-02T10:59:28;12.30;99.90
12926;DHT22;6529;50.566;9.774;2024-03-02T11:01:59;12.60;1.00
12926;DHT22;6529;50.566;9.774;2024-03-02T11:04:26;12.60;99.90
12926;DHT22;6529;50.566;9.774;2024-03-02T11:06:54;12.80;99.90
12926;DHT22;6529;50.566;9.774;2024-03-02T11:09:22;12.90;99.90
12926;DHT22;6529;50.566;9.774;2024-03-02T11:12:00;12.80;99.90
12926;DHT22;6529;50.566;9.774;2024-03-02T11:14:30;12.70;99.90
12926;DHT22;6529;50.566;9.774;2024-03-02T11:16:58;12.50;99.90
12926;DHT22;6529;50.566;9.774;2024-03-02T11:19:24;12.40;99.90
12926;DHT22;6529;50.566;9.774;2024-03-02T11:21:50;12.50;99.90
12926;DHT22;6529;50.566;9.774;2024-03-02T11:24:29;12.40;99.90
12926;DHT22;6529;50.566;9.774;2024-03-02T11:27:07;12.20;99.90
12926;DHT22;6529;50.566;9.774;2024-03-02T11:32:03;12.30;99.90
12926;DHT22;6529;50.566;9.774;2024-03-02T11:34:30;12.70;1.00
12926;DHT22;6529;50.566;9.774;2024-03-02T11:36:57;13.10;99.90
12926;DHT22;6529;50.566;9.774;2024-03-02T11:39:22;13.50;99.90
12926;DHT22;6529;50.566;9.774;2024-03-02T11:41:48;13.90;99.90
12926;DHT22;6529;50.566;9.774;2024-03-02T11:44:15;14.10;99.90
12926;DHT22;6529;50.566;9.774;2024-03-02T11:46:41;14.30;77.50
12926;DHT22;6529;50.566;9.774;2024-03-02T11:49:07;14.50;41.80
12926;DHT22;6529;50.566;9.774;2024-03-02T11:51:34;14.60;55.40
12926;DHT22;6529;50.566;9.774;2024-03-02T11:54:01;14.70;1.00
12926;DHT22;6529;50.566;9.774;2024-03-02T11:56:28;14.60;1.00
12926;DHT22;6529;50.566;9.774;2024-03-02T11:58:56;14.70;1.00
12926;DHT22;6529;50.566;9.774;2024-03-02T12:01:23;14.40;1.00
12926;DHT22;6529;50.566;9.774;2024-03-02T12:03:49;14.70;1.00
12926;DHT22;6529;50.566;9.774;2024-03-02T12:06:15;15.00;1.00
12926;DHT22;6529;50.566;9.774;2024-03-02T12:08:40;15.20;1.00
12926;DHT22;6529;50.566;9.774;2024-03-02T12:11:06;15.00;1.00
12926;DHT22;6529;50.566;9.774;2024-03-02T12:13:32;15.00;1.00
12926;DHT22;6529;50.566;9.774;2024-03-02T12:15:58;15.10;1.00
12926;DHT22;6529;50.566;9.774;2024-03-02T12:18:24;15.10;1.00
12926;DHT22;6529;50.566;9.774;2024-03-02T12:20:51;15.20;1.00
12926;DHT22;6529;50.566;9.774;2024-03-02T12:23:18;15.20;1.00
12926;DHT22;6529;50.566;9.774;2024-03-02T12:25:44;15.10;1.00
12926;DHT22;6529;50.566;9.774;2024-03-02T12:28:10;14.80;1.00
12926;DHT22;6529;50.566;9.774;2024-03-02T12:30:36;15.10;1.00
12926;DHT22;6529;50.566;9.774;2024-03-02T12:33:02;15.30;1.00
12926;DHT22;6529;50.566;9.774;2024-03-02T12:35:27;15.20;1.00
12926;DHT22;6529;50.566;9.774;2024-03-02T12:37:54;15.10;1.00
12926;DHT22;6529;50.566;9.774;2024-03-02T12:40:21;15.10;1.00
12926;DHT22;6529;50.566;9.774;2024-03-02T12:42:48;15.10;1.00
12926;DHT22;6529;50.566;9.774;2024-03-02T12:45:14;15.40;1.00
12926;DHT22;6529;50.566;9.774;2024-03-02T12:47:41;15.80;1.00
12926;DHT22;6529;50.566;9.774;2024-03-02T12:50:08;16.10;1.00
12926;DHT22;6529;50.566;9.774;2024-03-02T12:52:34;16.20;1.00
12926;DHT22;6529;50.566;9.774;2024-03-02T12:55:02;16.40;1.00
12926;DHT22;6529;50.566;9.774;2024-03-02T12:57:30;16.50;1.00
12926;DHT22;6529;50.566;9.774;2024-03-02T13:00:05;16.80;1.00
12926;DHT22;6529;50.566;9.774;2024-03-02T13:02:41;16.80;1.00
12926;DHT22;6529;50.566;9.774;2024-03-02T13:05:07;16.80;1.00
12926;DHT22;6529;50.566;9.774;2024-03-02T13:07:39;16.60;1.00
12926;DHT22;6529;50.566;9.774;2024-03-02T13:10:07;16.90;1.00
12926;DHT22;6529;50.566;9.774;2024-03-02T13:12:36;17.40;1.00
12926;DHT22;6529;50.566;9.774;2024-03-02T13:15:03;17.60;1.00
12926;DHT22;6529;50.566;9.774;2024-03-02T13:17:29;17.70;1.00
12926;DHT22;6529;50.566;9.774;2024-03-02T13:19:56;17.90;1.00
12926;DHT22;6529;50.566;9.774;2024-03-02T13:22:22;17.90;1.00
12926;DHT22;6529;50.566;9.774;2024-03-02T13:24:48;17.40;1.00
12926;DHT22;6529;50.566;9.774;2024-03-02T13:27:14;17.20;1.00
12926;DHT22;6529;50.566;9.774;2024-03-02T13:29:39;17.20;1.00
12926;DHT22;6529;50.566;9.774;2024-03-02T13:32:05;17.30;1.00
12926;DHT22;6529;50.566;9.774;2024-03-02T13:34:31;17.90;1.00
12926;DHT22;6529;50.566;9.774;2024-03-02T13:36:56;17.70;1.00
12926;DHT22;6529;50.566;9.774;2024-03-02T13:39:22;18.00;1.00
12926;DHT22;6529;50.566;9.774;2024-03-02T13:41:48;18.30;1.00
12926;DHT22;6529;50.566;9.774;2024-03-02T13:44:21;18.10;1.00
12926;DHT22;6529;50.566;9.774;2024-03-02T13:46:47;18.20;1.00
12926;DHT22;6529;50.566;9.774;2024-03-02T13:49:13;18.20;1.00
12926;DHT22;6529;50.566;9.774;2024-03-02T13:51:39;18.30;1.00
12926;DHT22;6529;50.566;9.774;2024-03-02T13:54:05;18.20;1.00
12926;DHT22;6529;50.566;9.774;2024-03-02T13:56:31;18.60;1.00
12926;DHT22;6529;50.566;9.774;2024-03-02T13:58:58;18.40;1.00
12926;DHT22;6529;50.566;9.774;2024-03-02T14:01:23;18.20;1.00
12926;DHT22;6529;50.566;9.774;2024-03-02T14:03:49;18.10;1.00
12926;DHT22;6529;50.566;9.774;2024-03-02T14:06:15;18.10;1.00
12926;DHT22;6529;50.566;9.774;2024-03-02T14:08:40;18.50;1.00
12926;DHT22;6529;50.566;9.774;2024-03-02T14:11:10;18.50;1.00
12926;DHT22;6529;50.566;9.774;2024-03-02T14:13:40;18.40;1.00
12926;DHT22;6529;50.566;9.774;2024-03-02T14:16:06;17.80;1.00
12926;DHT22;6529;50.566;9.774;2024-03-02T14:18:32;17.60;1.00
12926;DHT22;6529;50.566;9.774;2024-03-02T14:20:57;17.40;1.00
12926;DHT22;6529;50.566;9.774;2024-03-02T14:23:23;17.30;1.00
12926;DHT22;6529;50.566;9.774;2024-03-02T14:25:48;17.20;1.00
12926;DHT22;6529;50.566;9.774;2024-03-02T14:28:14;17.20;1.00
12926;DHT22;6529;50.566;9.774;2024-03-02T14:30:41;17.30;1.00
12926;DHT22;6529;50.566;9.774;2024-03-02T14:33:07;17.40;1.00
12926;DHT22;6529;50.566;9.774;2024-03-02T14:35:33;17.70;1.00
12926;DHT22;6529;50.566;9.774;2024-03-02T14:37:59;17.60;1.00
12926;DHT22;6529;50.566;9.774;2024-03-02T14:40:24;17.40;1.00
12926;DHT22;6529;50.566;9.774;2024-03-02T14:42:52;17.50;1.00
12926;DHT22;6529;50.566;9.774;2024-03-02T14:45:18;17.10;1.00
12926;DHT22;6529;50.566;9.774;2024-03-02T14:47:43;16.50;1.00
12926;DHT22;6529;50.566;9.774;2024-03-02T14:50:09;16.60;1.00
12926;DHT22;6529;50.566;9.774;2024-03-02T14:52:35;16.60;1.00
12926;DHT22;6529;50.566;9.774;2024-03-02T14:55:01;16.80;1.00
12926;DHT22;6529;50.566;9.774;2024-03-02T14:57:29;16.30;1.00
12926;DHT22;6529;50.566;9.774;2024-03-02T14:59:54;16.00;1.00
12926;DHT22;6529;50.566;9.774;2024-03-02T15:02:20;16.10;1.00
12926;DHT22;6529;50.566;9.774;2024-03-02T15:04:46;16.20;1.00
12926;DHT22;6529;50.566;9.774;2024-03-02T15:07:13;16.20;1.00
12926;DHT22;6529;50.566;9.774;2024-03-02T15:09:39;16.50;1.00
12926;DHT22;6529;50.566;9.774;2024-03-02T15:12:05;16.40;1.00
12926;DHT22;6529;50.566;9.774;2024-03-02T15:14:31;16.50;1.00
12926;DHT22;6529;50.566;9.774;2024-03-02T15:16:58;16.10;1.00
12926;DHT22;6529;50.566;9.774;2024-03-02T15:19:23;15.80;1.00
12926;DHT22;6529;50.566;9.774;2024-03-02T15:21:49;15.40;1.00
12926;DHT22;6529;50.566;9.774;2024-03-02T15:24:15;15.00;1.00
12926;DHT22;6529;50.566;9.774;2024-03-02T15:26:40;14.80;1.00
12926;DHT22;6529;50.566;9.774;2024-03-02T15:29:06;14.70;1.00
12926;DHT22;6529;50.566;9.774;2024-03-02T15:31:31;14.70;1.00
12926;DHT22;6529;50.566;9.774;2024-03-02T15:33:57;14.70;1.00
12926;DHT22;6529;50.566;9.774;2024-03-02T15:36:24;14.50;1.00
12926;DHT22;6529;50.566;9.774;2024-03-02T15:38:49;14.30;1.00
12926;DHT22;6529;50.566;9.774;2024-03-02T15:41:15;14.10;1.00
12926;DHT22;6529;50.566;9.774;2024-03-02T15:43:41;14.20;20.10
12926;DHT22;6529;50.566;9.774;2024-03-02T15:46:08;14.10;16.80
12926;DHT22;6529;50.566;9.774;2024-03-02T15:48:34;14.10;1.00
12926;DHT22;6529;50.566;9.774;2024-03-02T15:50:59;14.00;1.00
12926;DHT22;6529;50.566;9.774;2024-03-02T15:53:25;13.90;59.00
12926;DHT22;6529;50.566;9.774;2024-03-02T15:55:51;13.70;99.90
12926;DHT22;6529;50.566;9.774;2024-03-02T15:58:16;13.50;99.90
12926;DHT22;6529;50.566;9.774;2024-03-02T16:00:42;13.50;99.90